JFA70Q LFPB-LEBA
Flight info
| Callsign | JFA70Q |
|---|---|
| Flight time | 2h 8m |
| Altitude | 41000 |
| Route | AGOPA R106 ARKIP DCT ARNAV DCT LMG DCT PPN N10 BAN N857 MONTO N864 MOCEQ |
| Aircraft | PC24/M-SBDGIRWY/LB2 |
Departure
| Time | 2026-05-05 15:53 |
|---|---|
| Airport | Paris-Le Bourget International Airport (LFPB) |
Arrival
| Time | 2026-05-05 18:01 |
|---|---|
| Airport | Córdoba Airport (LEBA) |
| Time | Latitude | Longitude | Altitude | Speed | Heading |
|---|---|---|---|---|---|
| 2026-05-05 15:35 | 48.96297 | 2.44847 | 167 ft | 0 kts | 205° |
| 2026-05-05 15:41 | 48.96303 | 2.44851 | 167 ft | 2 kts | 205° |
| 2026-05-05 15:42 | 48.96311 | 2.44863 | 167 ft | 0 kts | 262° |
| 2026-05-05 15:45 | 48.96310 | 2.44862 | 167 ft | 0 kts | 263° |
| 2026-05-05 15:45 | 48.96310 | 2.44819 | 167 ft | 10 kts | 273° |
| 2026-05-05 15:46 | 48.96337 | 2.44653 | 167 ft | 22 kts | 277° |
| 2026-05-05 15:46 | 48.96341 | 2.44602 | 167 ft | 0 kts | 277° |
| 2026-05-05 15:46 | 48.96345 | 2.44563 | 167 ft | 10 kts | 278° |
| 2026-05-05 15:46 | 48.96285 | 2.44446 | 167 ft | 21 kts | 244° |
| 2026-05-05 15:47 | 48.96241 | 2.44169 | 165 ft | 30 kts | 258° |
| 2026-05-05 15:47 | 48.96129 | 2.43938 | 163 ft | 30 kts | 203° |
| 2026-05-05 15:47 | 48.95925 | 2.43795 | 156 ft | 34 kts | 205° |
| 2026-05-05 15:47 | 48.95809 | 2.43619 | 153 ft | 23 kts | 294° |
| 2026-05-05 15:48 | 48.95870 | 2.43429 | 161 ft | 23 kts | 295° |
| 2026-05-05 15:48 | 48.95950 | 2.43162 | 154 ft | 31 kts | 297° |
| 2026-05-05 15:48 | 48.96084 | 2.42893 | 149 ft | 32 kts | 309° |
| 2026-05-05 15:48 | 48.96219 | 2.42633 | 156 ft | 28 kts | 307° |
| 2026-05-05 15:49 | 48.96266 | 2.42362 | 155 ft | 29 kts | 268° |
| 2026-05-05 15:49 | 48.96262 | 2.42217 | 155 ft | 0 kts | 266° |
| 2026-05-05 15:52 | 48.96266 | 2.42119 | 155 ft | 21 kts | 292° |
| 2026-05-05 15:52 | 48.96370 | 2.42111 | 152 ft | 15 kts | 66° |
| 2026-05-05 15:52 | 48.96377 | 2.42162 | 152 ft | 0 kts | 84° |
| 2026-05-05 15:52 | 48.96391 | 2.42427 | 158 ft | 65 kts | 85° |
| 2026-05-05 15:53 | 48.96469 | 2.43527 | 182 ft | 140 kts | 87° |
| 2026-05-05 15:53 | 48.96541 | 2.45199 | 639 ft | 176 kts | 83° |
| 2026-05-05 15:53 | 48.96594 | 2.46939 | 1150 ft | 152 kts | 83° |
| 2026-05-05 15:53 | 48.96612 | 2.48485 | 1615 ft | 154 kts | 83° |
| 2026-05-05 15:54 | 48.96769 | 2.50307 | 2195 ft | 188 kts | 78° |
| 2026-05-05 15:54 | 48.96898 | 2.52186 | 2717 ft | 179 kts | 86° |
| 2026-05-05 15:54 | 48.96764 | 2.54076 | 3311 ft | 175 kts | 92° |
| 2026-05-05 15:54 | 48.96645 | 2.55965 | 4072 ft | 181 kts | 92° |
| 2026-05-05 15:55 | 48.96519 | 2.57876 | 4834 ft | 184 kts | 93° |
| 2026-05-05 15:55 | 48.96388 | 2.59793 | 5590 ft | 185 kts | 94° |
| 2026-05-05 15:55 | 48.96252 | 2.61766 | 6351 ft | 188 kts | 94° |
| 2026-05-05 15:55 | 48.96119 | 2.63751 | 7084 ft | 190 kts | 93° |
| 2026-05-05 15:56 | 48.95982 | 2.65751 | 7829 ft | 191 kts | 94° |
| 2026-05-05 15:56 | 48.95843 | 2.67783 | 8590 ft | 195 kts | 94° |
| 2026-05-05 15:56 | 48.95699 | 2.69859 | 9340 ft | 200 kts | 94° |
| 2026-05-05 15:56 | 48.95554 | 2.71998 | 9770 ft | 204 kts | 94° |
| 2026-05-05 15:57 | 48.95402 | 2.74164 | 9823 ft | 207 kts | 94° |
| 2026-05-05 15:57 | 48.95257 | 2.76231 | 10341 ft | 191 kts | 94° |
| 2026-05-05 15:57 | 48.95112 | 2.78295 | 11126 ft | 202 kts | 96° |
| 2026-05-05 15:57 | 48.94546 | 2.80290 | 11933 ft | 216 kts | 129° |
| 2026-05-05 15:58 | 48.93253 | 2.81542 | 12774 ft | 231 kts | 163° |
| 2026-05-05 15:58 | 48.91633 | 2.81379 | 13638 ft | 243 kts | 201° |
| 2026-05-05 15:58 | 48.90344 | 2.79683 | 14392 ft | 252 kts | 233° |
| 2026-05-05 15:58 | 48.89453 | 2.77367 | 15150 ft | 256 kts | 240° |
| 2026-05-05 15:59 | 48.88625 | 2.74926 | 15914 ft | 265 kts | 240° |
| 2026-05-05 15:59 | 48.87725 | 2.72431 | 16703 ft | 274 kts | 239° |
| 2026-05-05 15:59 | 48.86763 | 2.69883 | 17507 ft | 282 kts | 238° |
| 2026-05-05 15:59 | 48.85779 | 2.67255 | 18302 ft | 290 kts | 238° |
| 2026-05-05 16:00 | 48.84778 | 2.64548 | 19016 ft | 298 kts | 239° |
| 2026-05-05 16:00 | 48.83726 | 2.61803 | 19746 ft | 303 kts | 234° |
| 2026-05-05 16:00 | 48.82489 | 2.59180 | 20493 ft | 308 kts | 232° |
| 2026-05-05 16:00 | 48.81231 | 2.56512 | 21191 ft | 315 kts | 233° |
| 2026-05-05 16:01 | 48.79952 | 2.53763 | 21853 ft | 323 kts | 233° |
| 2026-05-05 16:01 | 48.78660 | 2.50994 | 22515 ft | 329 kts | 233° |
| 2026-05-05 16:01 | 48.77324 | 2.48152 | 23202 ft | 334 kts | 233° |
| 2026-05-05 16:01 | 48.75968 | 2.45265 | 23817 ft | 338 kts | 233° |
| 2026-05-05 16:02 | 48.74577 | 2.42304 | 24416 ft | 342 kts | 233° |
| 2026-05-05 16:02 | 48.73086 | 2.39563 | 24997 ft | 342 kts | 222° |
| 2026-05-05 16:02 | 48.71214 | 2.37348 | 25616 ft | 342 kts | 210° |
| 2026-05-05 16:02 | 48.69169 | 2.35512 | 26248 ft | 342 kts | 208° |
| 2026-05-05 16:03 | 48.67123 | 2.33666 | 26889 ft | 341 kts | 208° |
| 2026-05-05 16:03 | 48.65094 | 2.31831 | 27538 ft | 339 kts | 208° |
| 2026-05-05 16:03 | 48.63067 | 2.30009 | 28201 ft | 338 kts | 208° |
| 2026-05-05 16:03 | 48.61053 | 2.28202 | 28880 ft | 336 kts | 208° |
| 2026-05-05 16:04 | 48.59051 | 2.26403 | 29570 ft | 333 kts | 207° |
| 2026-05-05 16:04 | 48.57068 | 2.24622 | 30222 ft | 330 kts | 207° |
| 2026-05-05 16:04 | 48.55106 | 2.22863 | 30826 ft | 326 kts | 207° |
| 2026-05-05 16:04 | 48.53167 | 2.21126 | 31450 ft | 322 kts | 207° |
| 2026-05-05 16:05 | 48.51256 | 2.19416 | 32083 ft | 317 kts | 207° |
| 2026-05-05 16:05 | 48.49354 | 2.17724 | 32484 ft | 320 kts | 206° |
| 2026-05-05 16:05 | 48.47401 | 2.16022 | 32704 ft | 328 kts | 207° |
| 2026-05-05 16:05 | 48.45414 | 2.14283 | 33033 ft | 332 kts | 207° |
| 2026-05-05 16:06 | 48.43417 | 2.12526 | 33437 ft | 334 kts | 207° |
| 2026-05-05 16:06 | 48.41408 | 2.10760 | 33827 ft | 335 kts | 207° |
| 2026-05-05 16:06 | 48.39392 | 2.08994 | 34150 ft | 336 kts | 207° |
| 2026-05-05 16:06 | 48.37364 | 2.07221 | 34480 ft | 338 kts | 207° |
| 2026-05-05 16:07 | 48.35324 | 2.05437 | 34810 ft | 340 kts | 207° |
| 2026-05-05 16:07 | 48.33275 | 2.03645 | 35142 ft | 341 kts | 208° |
| 2026-05-05 16:07 | 48.31193 | 2.01943 | 35466 ft | 339 kts | 201° |
| 2026-05-05 16:07 | 48.28959 | 2.00857 | 35818 ft | 337 kts | 191° |
| 2026-05-05 16:08 | 48.26642 | 2.00446 | 36164 ft | 335 kts | 180° |
| 2026-05-05 16:08 | 48.24316 | 2.00515 | 36525 ft | 334 kts | 178° |
| 2026-05-05 16:08 | 48.21997 | 2.00580 | 36882 ft | 333 kts | 179° |
| 2026-05-05 16:08 | 48.19683 | 2.00639 | 37249 ft | 332 kts | 179° |
| 2026-05-05 16:09 | 48.17375 | 2.00708 | 37616 ft | 331 kts | 179° |
| 2026-05-05 16:09 | 48.15073 | 2.00777 | 37991 ft | 331 kts | 180° |
| 2026-05-05 16:09 | 48.12774 | 2.00844 | 38372 ft | 330 kts | 180° |
| 2026-05-05 16:09 | 48.10504 | 2.00909 | 38651 ft | 332 kts | 180° |
| 2026-05-05 16:10 | 48.08184 | 2.00979 | 38872 ft | 335 kts | 179° |
| 2026-05-05 16:10 | 48.05851 | 2.01145 | 39096 ft | 337 kts | 179° |
| 2026-05-05 16:10 | 48.03483 | 2.01271 | 39192 ft | 344 kts | 179° |
| 2026-05-05 16:11 | 47.98612 | 2.01546 | 39345 ft | 356 kts | 179° |
| 2026-05-05 16:11 | 47.91054 | 2.02000 | 39720 ft | 368 kts | 179° |
| 2026-05-05 16:12 | 47.88482 | 2.02152 | 39844 ft | 371 kts | 179° |
| 2026-05-05 16:12 | 47.83283 | 2.02463 | 40081 ft | 377 kts | 179° |
| 2026-05-05 16:13 | 47.75408 | 2.02928 | 40710 ft | 377 kts | 179° |
| 2026-05-05 16:13 | 47.70120 | 2.03238 | 40797 ft | 385 kts | 179° |
| 2026-05-05 16:14 | 47.59392 | 2.01354 | 40818 ft | 399 kts | 202° |
| 2026-05-05 16:15 | 47.49035 | 1.95346 | 40833 ft | 399 kts | 202° |
| 2026-05-05 16:16 | 47.38744 | 1.89405 | 40847 ft | 397 kts | 202° |
| 2026-05-05 16:17 | 47.30988 | 1.84943 | 40855 ft | 401 kts | 202° |
| 2026-05-05 16:18 | 47.23248 | 1.80506 | 40849 ft | 398 kts | 202° |
| 2026-05-05 16:19 | 47.15525 | 1.76124 | 40845 ft | 397 kts | 201° |
| 2026-05-05 16:19 | 47.07745 | 1.71743 | 40855 ft | 401 kts | 201° |
| 2026-05-05 16:20 | 46.97393 | 1.65936 | 40847 ft | 396 kts | 201° |
| 2026-05-05 16:22 | 46.84523 | 1.58748 | 40855 ft | 398 kts | 201° |
| 2026-05-05 16:23 | 46.74199 | 1.53009 | 40856 ft | 396 kts | 201° |
| 2026-05-05 16:23 | 46.66499 | 1.48744 | 40853 ft | 395 kts | 201° |
| 2026-05-05 16:24 | 46.61345 | 1.45896 | 40855 ft | 398 kts | 201° |
| 2026-05-05 16:25 | 46.53568 | 1.41611 | 40864 ft | 398 kts | 201° |
| 2026-05-05 16:25 | 46.45834 | 1.37361 | 40864 ft | 395 kts | 201° |
| 2026-05-05 16:26 | 46.36414 | 1.32204 | 40870 ft | 397 kts | 201° |
| 2026-05-05 16:27 | 46.31227 | 1.29372 | 40880 ft | 399 kts | 201° |
| 2026-05-05 16:27 | 46.26047 | 1.26550 | 40884 ft | 396 kts | 201° |
| 2026-05-05 16:28 | 46.20912 | 1.23757 | 40874 ft | 393 kts | 201° |
| 2026-05-05 16:28 | 46.15777 | 1.20970 | 40885 ft | 395 kts | 201° |
| 2026-05-05 16:29 | 46.10611 | 1.18173 | 40904 ft | 398 kts | 201° |
| 2026-05-05 16:29 | 46.05434 | 1.15374 | 40904 ft | 396 kts | 201° |
| 2026-05-05 16:30 | 46.00294 | 1.12601 | 40900 ft | 393 kts | 201° |
| 2026-05-05 16:30 | 45.95177 | 1.09846 | 40903 ft | 394 kts | 201° |
| 2026-05-05 16:31 | 45.90033 | 1.07083 | 40906 ft | 396 kts | 201° |
| 2026-05-05 16:31 | 45.84868 | 1.04313 | 40911 ft | 396 kts | 201° |
| 2026-05-05 16:32 | 45.79949 | 1.01019 | 40904 ft | 391 kts | 213° |
| 2026-05-05 16:32 | 45.75413 | 0.96733 | 40907 ft | 392 kts | 213° |
| 2026-05-05 16:33 | 45.70844 | 0.92450 | 40914 ft | 394 kts | 214° |
| 2026-05-05 16:33 | 45.66252 | 0.88137 | 40917 ft | 395 kts | 214° |
| 2026-05-05 16:34 | 45.61667 | 0.83849 | 40920 ft | 393 kts | 214° |
| 2026-05-05 16:34 | 45.57106 | 0.79587 | 40915 ft | 391 kts | 214° |
| 2026-05-05 16:35 | 45.52557 | 0.75346 | 40915 ft | 391 kts | 214° |
| 2026-05-05 16:35 | 45.47983 | 0.71090 | 40916 ft | 394 kts | 214° |
| 2026-05-05 16:36 | 45.43381 | 0.66816 | 40919 ft | 395 kts | 214° |
| 2026-05-05 16:36 | 45.38800 | 0.62571 | 40913 ft | 391 kts | 214° |
| 2026-05-05 16:37 | 45.34245 | 0.58357 | 40913 ft | 390 kts | 214° |
| 2026-05-05 16:37 | 45.29690 | 0.54152 | 40913 ft | 391 kts | 214° |
| 2026-05-05 16:38 | 45.25121 | 0.49942 | 40920 ft | 392 kts | 213° |
| 2026-05-05 16:38 | 45.20574 | 0.45761 | 40919 ft | 392 kts | 213° |
| 2026-05-05 16:39 | 45.15989 | 0.41552 | 40923 ft | 393 kts | 213° |
| 2026-05-05 16:39 | 45.11396 | 0.37346 | 40926 ft | 393 kts | 213° |
| 2026-05-05 16:40 | 45.06823 | 0.33165 | 40928 ft | 390 kts | 213° |
| 2026-05-05 16:40 | 45.02285 | 0.29024 | 40928 ft | 385 kts | 213° |
| 2026-05-05 16:41 | 45.00058 | 0.26995 | 41171 ft | 378 kts | 213° |
| 2026-05-05 16:41 | 44.97854 | 0.24988 | 41413 ft | 377 kts | 213° |
| 2026-05-05 16:41 | 44.95654 | 0.22987 | 41649 ft | 375 kts | 213° |
| 2026-05-05 16:41 | 44.93462 | 0.20995 | 41900 ft | 374 kts | 213° |
| 2026-05-05 16:42 | 44.91274 | 0.19009 | 42143 ft | 373 kts | 213° |
| 2026-05-05 16:42 | 44.89098 | 0.17035 | 42393 ft | 372 kts | 213° |
| 2026-05-05 16:42 | 44.86926 | 0.15067 | 42647 ft | 370 kts | 213° |
| 2026-05-05 16:42 | 44.84761 | 0.13107 | 42897 ft | 369 kts | 213° |
| 2026-05-05 16:43 | 44.80380 | 0.09145 | 42933 ft | 379 kts | 213° |
| 2026-05-05 16:43 | 44.75886 | 0.05090 | 42944 ft | 388 kts | 213° |
| 2026-05-05 16:44 | 44.71294 | 0.00954 | 42948 ft | 395 kts | 213° |
| 2026-05-05 16:44 | 44.66686 | -0.03187 | 42946 ft | 391 kts | 213° |
| 2026-05-05 16:45 | 44.62114 | -0.07292 | 42934 ft | 390 kts | 213° |
| 2026-05-05 16:45 | 44.57564 | -0.11366 | 42935 ft | 390 kts | 213° |
| 2026-05-05 16:46 | 44.52981 | -0.15462 | 42938 ft | 391 kts | 213° |
| 2026-05-05 16:46 | 44.48379 | -0.19569 | 42940 ft | 392 kts | 213° |
| 2026-05-05 16:47 | 44.43771 | -0.23673 | 42942 ft | 393 kts | 213° |
| 2026-05-05 16:47 | 44.39153 | -0.27777 | 42942 ft | 394 kts | 213° |
| 2026-05-05 16:48 | 44.34526 | -0.31882 | 42941 ft | 394 kts | 213° |
| 2026-05-05 16:48 | 44.29887 | -0.35989 | 42947 ft | 395 kts | 213° |
| 2026-05-05 16:49 | 44.25247 | -0.40090 | 42947 ft | 394 kts | 213° |
| 2026-05-05 16:49 | 44.20620 | -0.44171 | 42945 ft | 392 kts | 213° |
| 2026-05-05 16:50 | 44.16022 | -0.48220 | 42944 ft | 390 kts | 213° |
| 2026-05-05 16:50 | 44.11442 | -0.52245 | 42949 ft | 389 kts | 213° |
| 2026-05-05 16:51 | 44.06846 | -0.56277 | 42948 ft | 392 kts | 213° |
| 2026-05-05 16:51 | 44.02226 | -0.60321 | 42956 ft | 393 kts | 213° |
| 2026-05-05 16:52 | 43.97591 | -0.64372 | 42957 ft | 393 kts | 213° |
| 2026-05-05 16:52 | 43.93011 | -0.68367 | 42957 ft | 389 kts | 213° |
| 2026-05-05 16:53 | 43.88441 | -0.72346 | 42952 ft | 388 kts | 213° |
| 2026-05-05 16:53 | 43.83856 | -0.76331 | 42960 ft | 390 kts | 213° |
| 2026-05-05 16:54 | 43.79244 | -0.80332 | 42968 ft | 392 kts | 213° |
| 2026-05-05 16:54 | 43.74625 | -0.84331 | 42967 ft | 390 kts | 213° |
| 2026-05-05 16:55 | 43.70035 | -0.88299 | 42958 ft | 388 kts | 213° |
| 2026-05-05 16:55 | 43.65469 | -0.92238 | 42959 ft | 387 kts | 213° |
| 2026-05-05 16:56 | 43.60888 | -0.96183 | 42957 ft | 389 kts | 213° |
| 2026-05-05 16:56 | 43.56275 | -1.00148 | 42965 ft | 392 kts | 213° |
| 2026-05-05 16:57 | 43.51646 | -1.04119 | 42964 ft | 391 kts | 213° |
| 2026-05-05 16:57 | 43.47075 | -1.08034 | 42965 ft | 388 kts | 213° |
| 2026-05-05 16:58 | 43.42497 | -1.11949 | 42966 ft | 387 kts | 213° |
| 2026-05-05 16:58 | 43.37902 | -1.15870 | 42985 ft | 390 kts | 213° |
| 2026-05-05 16:59 | 43.33278 | -1.19809 | 42983 ft | 392 kts | 213° |
| 2026-05-05 16:59 | 43.28645 | -1.23748 | 42985 ft | 391 kts | 213° |
| 2026-05-05 17:00 | 43.24036 | -1.27659 | 42974 ft | 389 kts | 213° |
| 2026-05-05 17:00 | 43.19448 | -1.31547 | 42975 ft | 387 kts | 213° |
| 2026-05-05 17:01 | 43.14854 | -1.35432 | 42965 ft | 388 kts | 213° |
| 2026-05-05 17:01 | 43.10254 | -1.39314 | 42972 ft | 388 kts | 213° |
| 2026-05-05 17:02 | 43.05662 | -1.43184 | 42983 ft | 388 kts | 213° |
| 2026-05-05 17:02 | 43.01062 | -1.47054 | 42992 ft | 390 kts | 213° |
| 2026-05-05 17:03 | 42.96426 | -1.50947 | 43001 ft | 392 kts | 213° |
| 2026-05-05 17:03 | 42.91784 | -1.54837 | 42991 ft | 390 kts | 213° |
| 2026-05-05 17:04 | 42.87184 | -1.58686 | 42995 ft | 386 kts | 214° |
| 2026-05-05 17:04 | 42.82592 | -1.62522 | 42999 ft | 389 kts | 213° |
| 2026-05-05 17:05 | 42.77969 | -1.66376 | 43004 ft | 390 kts | 214° |
| 2026-05-05 17:05 | 42.73335 | -1.70208 | 42998 ft | 389 kts | 212° |
| 2026-05-05 17:06 | 42.68483 | -1.73481 | 42994 ft | 389 kts | 209° |
| 2026-05-05 17:06 | 42.63651 | -1.76756 | 42986 ft | 388 kts | 209° |
| 2026-05-05 17:07 | 42.58851 | -1.79969 | 42983 ft | 388 kts | 209° |
| 2026-05-05 17:07 | 42.54004 | -1.83225 | 42973 ft | 390 kts | 209° |
| 2026-05-05 17:08 | 42.49131 | -1.86485 | 42970 ft | 391 kts | 209° |
| 2026-05-05 17:08 | 42.44240 | -1.89755 | 42964 ft | 392 kts | 209° |
| 2026-05-05 17:09 | 42.39362 | -1.93007 | 42960 ft | 389 kts | 209° |
| 2026-05-05 17:09 | 42.34512 | -1.96236 | 42953 ft | 387 kts | 209° |
| 2026-05-05 17:10 | 42.29686 | -1.99444 | 42952 ft | 387 kts | 209° |
| 2026-05-05 17:10 | 42.24831 | -2.02666 | 42963 ft | 390 kts | 209° |
| 2026-05-05 17:11 | 42.19940 | -2.05904 | 42968 ft | 391 kts | 209° |
| 2026-05-05 17:11 | 42.15064 | -2.09128 | 42967 ft | 390 kts | 209° |
| 2026-05-05 17:12 | 42.10201 | -2.12337 | 42969 ft | 388 kts | 209° |
| 2026-05-05 17:12 | 42.05359 | -2.15527 | 42961 ft | 388 kts | 209° |
| 2026-05-05 17:13 | 42.00498 | -2.18727 | 42964 ft | 390 kts | 209° |
| 2026-05-05 17:13 | 41.95647 | -2.21910 | 42960 ft | 391 kts | 209° |
| 2026-05-05 17:14 | 41.90730 | -2.25133 | 42961 ft | 390 kts | 209° |
| 2026-05-05 17:14 | 41.85882 | -2.28306 | 42953 ft | 390 kts | 209° |
| 2026-05-05 17:15 | 41.81006 | -2.31491 | 42954 ft | 390 kts | 209° |
| 2026-05-05 17:15 | 41.76135 | -2.34668 | 42947 ft | 389 kts | 209° |
| 2026-05-05 17:16 | 41.72091 | -2.37300 | 42941 ft | 389 kts | 209° |
| 2026-05-05 17:16 | 41.67229 | -2.40462 | 42938 ft | 388 kts | 209° |
| 2026-05-05 17:17 | 41.62370 | -2.43615 | 42939 ft | 388 kts | 209° |
| 2026-05-05 17:17 | 41.57507 | -2.46767 | 42943 ft | 389 kts | 209° |
| 2026-05-05 17:18 | 41.52618 | -2.49929 | 42940 ft | 391 kts | 209° |
| 2026-05-05 17:18 | 41.47702 | -2.53103 | 42946 ft | 393 kts | 209° |
| 2026-05-05 17:19 | 41.42789 | -2.56269 | 42944 ft | 391 kts | 209° |
| 2026-05-05 17:19 | 41.37914 | -2.59406 | 42942 ft | 387 kts | 209° |
| 2026-05-05 17:20 | 41.33061 | -2.62538 | 42943 ft | 388 kts | 211° |
| 2026-05-05 17:20 | 41.28568 | -2.66489 | 42957 ft | 388 kts | 218° |
| 2026-05-05 17:21 | 41.24108 | -2.70570 | 42962 ft | 389 kts | 218° |
| 2026-05-05 17:22 | 41.17508 | -2.76649 | 42954 ft | 385 kts | 218° |
| 2026-05-05 17:22 | 41.13099 | -2.80690 | 42945 ft | 385 kts | 218° |
| 2026-05-05 17:23 | 41.08680 | -2.84739 | 42949 ft | 386 kts | 218° |
| 2026-05-05 17:23 | 41.04256 | -2.88783 | 42947 ft | 387 kts | 218° |
| 2026-05-05 17:24 | 40.99829 | -2.92824 | 42946 ft | 387 kts | 218° |
| 2026-05-05 17:24 | 40.95398 | -2.96861 | 42947 ft | 387 kts | 218° |
| 2026-05-05 17:25 | 40.90968 | -3.00891 | 42940 ft | 386 kts | 218° |
| 2026-05-05 17:25 | 40.86532 | -3.04921 | 42979 ft | 388 kts | 218° |
| 2026-05-05 17:26 | 40.82043 | -3.08991 | 42942 ft | 393 kts | 218° |
| 2026-05-05 17:26 | 40.77531 | -3.13075 | 42947 ft | 394 kts | 218° |
| 2026-05-05 17:27 | 40.73014 | -3.17157 | 42942 ft | 393 kts | 218° |
| 2026-05-05 17:27 | 40.68510 | -3.21220 | 42931 ft | 392 kts | 218° |
| 2026-05-05 17:28 | 40.64014 | -3.25270 | 42930 ft | 391 kts | 218° |
| 2026-05-05 17:28 | 40.59529 | -3.29302 | 42929 ft | 390 kts | 218° |
| 2026-05-05 17:29 | 40.55056 | -3.33317 | 42928 ft | 389 kts | 218° |
| 2026-05-05 17:29 | 40.50618 | -3.37295 | 42928 ft | 388 kts | 218° |
| 2026-05-05 17:30 | 40.46162 | -3.41282 | 42929 ft | 387 kts | 218° |
| 2026-05-05 17:30 | 40.41697 | -3.45272 | 42933 ft | 390 kts | 218° |
| 2026-05-05 17:31 | 40.37196 | -3.49285 | 42934 ft | 392 kts | 218° |
| 2026-05-05 17:31 | 40.32695 | -3.53291 | 42934 ft | 390 kts | 218° |
| 2026-05-05 17:32 | 40.28228 | -3.57264 | 42932 ft | 387 kts | 218° |
| 2026-05-05 17:32 | 40.23777 | -3.61214 | 42932 ft | 388 kts | 218° |
| 2026-05-05 17:33 | 40.19297 | -3.65184 | 42934 ft | 390 kts | 218° |
| 2026-05-05 17:33 | 40.14793 | -3.69168 | 42940 ft | 391 kts | 218° |
| 2026-05-05 17:34 | 40.10293 | -3.73140 | 42928 ft | 388 kts | 218° |
| 2026-05-05 17:34 | 40.05834 | -3.77072 | 42930 ft | 385 kts | 218° |
| 2026-05-05 17:35 | 40.01413 | -3.80965 | 42930 ft | 387 kts | 218° |
| 2026-05-05 17:35 | 39.96941 | -3.84895 | 42932 ft | 388 kts | 218° |
| 2026-05-05 17:36 | 39.92453 | -3.88832 | 42931 ft | 389 kts | 218° |
| 2026-05-05 17:36 | 39.87966 | -3.92763 | 42928 ft | 388 kts | 218° |
| 2026-05-05 17:36 | 39.85713 | -3.94736 | 42550 ft | 393 kts | 218° |
| 2026-05-05 17:37 | 39.83458 | -3.96706 | 42042 ft | 387 kts | 218° |
| 2026-05-05 17:37 | 39.81243 | -3.98636 | 41537 ft | 379 kts | 218° |
| 2026-05-05 17:37 | 39.79072 | -4.00531 | 41041 ft | 372 kts | 219° |
| 2026-05-05 17:37 | 39.76944 | -4.02389 | 40557 ft | 366 kts | 219° |
| 2026-05-05 17:38 | 39.74836 | -4.04228 | 40084 ft | 364 kts | 219° |
| 2026-05-05 17:38 | 39.72733 | -4.06062 | 39599 ft | 366 kts | 220° |
| 2026-05-05 17:38 | 39.70614 | -4.07906 | 39121 ft | 367 kts | 220° |
| 2026-05-05 17:38 | 39.68490 | -4.09752 | 38631 ft | 368 kts | 220° |
| 2026-05-05 17:39 | 39.66366 | -4.11595 | 38093 ft | 365 kts | 220° |
| 2026-05-05 17:39 | 39.64266 | -4.13417 | 37613 ft | 363 kts | 220° |
| 2026-05-05 17:39 | 39.62165 | -4.15245 | 37130 ft | 365 kts | 220° |
| 2026-05-05 17:39 | 39.60052 | -4.17078 | 36648 ft | 366 kts | 220° |
| 2026-05-05 17:40 | 39.57932 | -4.18913 | 36172 ft | 367 kts | 220° |
| 2026-05-05 17:40 | 39.55809 | -4.20748 | 35684 ft | 367 kts | 220° |
| 2026-05-05 17:40 | 39.53689 | -4.22583 | 35200 ft | 366 kts | 220° |
| 2026-05-05 17:40 | 39.51570 | -4.24414 | 34720 ft | 366 kts | 221° |
| 2026-05-05 17:41 | 39.49453 | -4.26243 | 34230 ft | 365 kts | 221° |
| 2026-05-05 17:41 | 39.47342 | -4.28066 | 33717 ft | 364 kts | 221° |
| 2026-05-05 17:41 | 39.45237 | -4.29880 | 33234 ft | 364 kts | 221° |
| 2026-05-05 17:41 | 39.43120 | -4.31708 | 32750 ft | 368 kts | 221° |
| 2026-05-05 17:42 | 39.40982 | -4.33549 | 32264 ft | 368 kts | 220° |
| 2026-05-05 17:42 | 39.38856 | -4.35373 | 31782 ft | 366 kts | 220° |
| 2026-05-05 17:42 | 39.36736 | -4.37197 | 31298 ft | 365 kts | 220° |
| 2026-05-05 17:42 | 39.34620 | -4.39020 | 30818 ft | 366 kts | 220° |
| 2026-05-05 17:43 | 39.32494 | -4.40844 | 30334 ft | 367 kts | 220° |
| 2026-05-05 17:43 | 39.30357 | -4.42678 | 29819 ft | 370 kts | 220° |
| 2026-05-05 17:43 | 39.28213 | -4.44515 | 29316 ft | 371 kts | 220° |
| 2026-05-05 17:43 | 39.26082 | -4.46340 | 28832 ft | 374 kts | 220° |
| 2026-05-05 17:44 | 39.23840 | -4.48082 | 28326 ft | 381 kts | 214° |
| 2026-05-05 17:44 | 39.21384 | -4.49448 | 27831 ft | 389 kts | 207° |
| 2026-05-05 17:44 | 39.18752 | -4.50395 | 27313 ft | 397 kts | 199° |
| 2026-05-05 17:44 | 39.16022 | -4.50974 | 26794 ft | 397 kts | 197° |
| 2026-05-05 17:45 | 39.13288 | -4.51543 | 26270 ft | 399 kts | 197° |
| 2026-05-05 17:45 | 39.10551 | -4.52132 | 25742 ft | 398 kts | 197° |
| 2026-05-05 17:45 | 39.07822 | -4.52709 | 25217 ft | 397 kts | 197° |
| 2026-05-05 17:45 | 39.05102 | -4.53271 | 24695 ft | 394 kts | 197° |
| 2026-05-05 17:46 | 39.02406 | -4.53832 | 24178 ft | 391 kts | 197° |
| 2026-05-05 17:46 | 38.99730 | -4.54397 | 23664 ft | 388 kts | 197° |
| 2026-05-05 17:46 | 38.97077 | -4.54957 | 23118 ft | 386 kts | 196° |
| 2026-05-05 17:46 | 38.94432 | -4.55508 | 22598 ft | 384 kts | 196° |
| 2026-05-05 17:47 | 38.91805 | -4.56056 | 22102 ft | 382 kts | 196° |
| 2026-05-05 17:47 | 38.89185 | -4.56603 | 21601 ft | 381 kts | 196° |
| 2026-05-05 17:47 | 38.86573 | -4.57151 | 21101 ft | 380 kts | 195° |
| 2026-05-05 17:47 | 38.83971 | -4.57693 | 20601 ft | 377 kts | 195° |
| 2026-05-05 17:48 | 38.81387 | -4.58229 | 20109 ft | 375 kts | 195° |
| 2026-05-05 17:48 | 38.78815 | -4.58766 | 19617 ft | 374 kts | 195° |
| 2026-05-05 17:48 | 38.76253 | -4.59300 | 19128 ft | 372 kts | 195° |
| 2026-05-05 17:48 | 38.73709 | -4.59827 | 18640 ft | 369 kts | 195° |
| 2026-05-05 17:49 | 38.71177 | -4.60354 | 18138 ft | 368 kts | 195° |
| 2026-05-05 17:49 | 38.68659 | -4.60879 | 17635 ft | 364 kts | 194° |
| 2026-05-05 17:49 | 38.66168 | -4.61393 | 17155 ft | 361 kts | 194° |
| 2026-05-05 17:49 | 38.63695 | -4.61906 | 16680 ft | 359 kts | 194° |
| 2026-05-05 17:50 | 38.61237 | -4.62417 | 16210 ft | 357 kts | 194° |
| 2026-05-05 17:50 | 38.58787 | -4.62925 | 15745 ft | 356 kts | 194° |
| 2026-05-05 17:50 | 38.56350 | -4.63428 | 15278 ft | 354 kts | 194° |
| 2026-05-05 17:50 | 38.53920 | -4.63931 | 14813 ft | 353 kts | 194° |
| 2026-05-05 17:51 | 38.51507 | -4.64430 | 14351 ft | 351 kts | 194° |
| 2026-05-05 17:51 | 38.49103 | -4.64926 | 13891 ft | 348 kts | 194° |
| 2026-05-05 17:51 | 38.46750 | -4.65411 | 13415 ft | 346 kts | 194° |
| 2026-05-05 17:51 | 38.44390 | -4.65897 | 12961 ft | 342 kts | 194° |
| 2026-05-05 17:52 | 38.42046 | -4.66382 | 12508 ft | 340 kts | 193° |
| 2026-05-05 17:52 | 38.39720 | -4.66861 | 12058 ft | 337 kts | 193° |
| 2026-05-05 17:52 | 38.37413 | -4.67334 | 11617 ft | 334 kts | 193° |
| 2026-05-05 17:52 | 38.35128 | -4.67806 | 11180 ft | 331 kts | 193° |
| 2026-05-05 17:53 | 38.32850 | -4.68178 | 10741 ft | 331 kts | 186° |
| 2026-05-05 17:53 | 38.30556 | -4.67977 | 10304 ft | 331 kts | 174° |
| 2026-05-05 17:53 | 38.28387 | -4.67217 | 9882 ft | 313 kts | 162° |
| 2026-05-05 17:53 | 38.26448 | -4.66132 | 9459 ft | 299 kts | 159° |
| 2026-05-05 17:54 | 38.24566 | -4.65087 | 9071 ft | 292 kts | 159° |
| 2026-05-05 17:54 | 38.22713 | -4.64063 | 8691 ft | 290 kts | 159° |
| 2026-05-05 17:54 | 38.20864 | -4.63030 | 8307 ft | 290 kts | 159° |
| 2026-05-05 17:54 | 38.19010 | -4.62031 | 7930 ft | 288 kts | 163° |
| 2026-05-05 17:55 | 38.17055 | -4.61560 | 7546 ft | 286 kts | 178° |
| 2026-05-05 17:55 | 38.15093 | -4.61706 | 7221 ft | 281 kts | 192° |
| 2026-05-05 17:55 | 38.13165 | -4.62160 | 6865 ft | 283 kts | 192° |
| 2026-05-05 17:55 | 38.11225 | -4.62591 | 6484 ft | 282 kts | 192° |
| 2026-05-05 17:56 | 38.09362 | -4.63276 | 6092 ft | 278 kts | 207° |
| 2026-05-05 17:56 | 38.07735 | -4.64517 | 5739 ft | 271 kts | 220° |
| 2026-05-05 17:56 | 38.06238 | -4.65994 | 5373 ft | 274 kts | 220° |
| 2026-05-05 17:56 | 38.04721 | -4.67443 | 5013 ft | 271 kts | 220° |
| 2026-05-05 17:57 | 38.03221 | -4.68885 | 4687 ft | 269 kts | 220° |
| 2026-05-05 17:57 | 38.01738 | -4.70326 | 4355 ft | 267 kts | 220° |
| 2026-05-05 17:57 | 38.00269 | -4.71619 | 4002 ft | 248 kts | 216° |
| 2026-05-05 17:57 | 37.98866 | -4.72786 | 3671 ft | 235 kts | 217° |
| 2026-05-05 17:58 | 37.97543 | -4.73918 | 3361 ft | 225 kts | 217° |
| 2026-05-05 17:58 | 37.96259 | -4.75010 | 3040 ft | 218 kts | 217° |
| 2026-05-05 17:58 | 37.95059 | -4.76019 | 2755 ft | 199 kts | 217° |
| 2026-05-05 17:58 | 37.93868 | -4.77030 | 2478 ft | 206 kts | 218° |
| 2026-05-05 17:59 | 37.92670 | -4.78041 | 2198 ft | 204 kts | 217° |
| 2026-05-05 17:59 | 37.91559 | -4.78974 | 1919 ft | 180 kts | 217° |
| 2026-05-05 17:59 | 37.90582 | -4.79799 | 1692 ft | 162 kts | 219° |
| 2026-05-05 17:59 | 37.89680 | -4.80562 | 1465 ft | 152 kts | 217° |
| 2026-05-05 18:00 | 37.88817 | -4.81296 | 1266 ft | 147 kts | 216° |
| 2026-05-05 18:00 | 37.87996 | -4.81974 | 1208 ft | 139 kts | 215° |
| 2026-05-05 18:00 | 37.87189 | -4.82668 | 977 ft | 142 kts | 218° |
| 2026-05-05 18:00 | 37.86387 | -4.83331 | 713 ft | 131 kts | 216° |
| 2026-05-05 18:01 | 37.85573 | -4.83916 | 518 ft | 137 kts | 208° |
| 2026-05-05 18:01 | 37.84769 | -4.84497 | 322 ft | 124 kts | 212° |
| 2026-05-05 18:01 | 37.84161 | -4.84915 | 303 ft | 58 kts | 210° |
| 2026-05-05 18:01 | 37.83910 | -4.85089 | 303 ft | 31 kts | 208° |
| 2026-05-05 18:02 | 37.83746 | -4.85194 | 303 ft | 14 kts | 195° |
| 2026-05-05 18:02 | 37.83684 | -4.85214 | 303 ft | 2 kts | 292° |
| 2026-05-05 18:02 | 37.83740 | -4.85198 | 303 ft | 21 kts | 20° |
| 2026-05-05 18:02 | 37.83922 | -4.85082 | 304 ft | 32 kts | 28° |
| 2026-05-05 18:03 | 37.84126 | -4.84938 | 302 ft | 35 kts | 29° |
| 2026-05-05 18:03 | 37.84312 | -4.84809 | 306 ft | 26 kts | 29° |
| 2026-05-05 18:03 | 37.84340 | -4.84684 | 307 ft | 15 kts | 119° |
| 2026-05-05 18:03 | 37.84325 | -4.84651 | 307 ft | 0 kts | 118° |
| 2026-05-05 18:04 | 37.84316 | -4.84626 | 308 ft | 9 kts | 102° |
| 2026-05-05 18:04 | 37.84353 | -4.84567 | 309 ft | 16 kts | 32° |
| 2026-05-05 18:05 | 37.84412 | -4.84482 | 308 ft | 9 kts | 112° |
| 2026-05-05 18:05 | 37.84442 | -4.84450 | 308 ft | 10 kts | 19° |
| 2026-05-05 18:05 | 37.84508 | -4.84449 | 307 ft | 9 kts | 302° |
| 2026-05-05 18:05 | 37.84523 | -4.84452 | 307 ft | 2 kts | 95° |
| 2026-05-05 18:06 | 37.84522 | -4.84450 | 307 ft | 0 kts | 114° |